AirNav   Everest Fuels
 
 948 users online  

33MS Freedom Strip Airport
Purvis, Mississippi, USA

GOING TO PURVIS?


FAA INFORMATION EFFECTIVE 18 JUNE 2020

Location

FAA Identifier: 33MS
Lat/Long: 31-06-02.0000N 089-25-04.0000W
31-06.033333N 089-25.066667W
31.1005556,-89.4177778
(estimated)
Elevation: 361 ft. / 110 m (estimated)
From city: 1 mile N of PURVIS, MS
Time zone: UTC -5 (UTC -6 during Standard Time)
Zip code: 39455

Airport Operations

Airport use: Private use. Permission required prior to landing
Activation date: 04/2011
Control tower: no
ARTCC: HOUSTON CENTER
FSS: GREENWOOD FLIGHT SERVICE STATION
Attendance: UNATNDD
Segmented circle: no

Airport Communications

WX ASOS at HBG (13 nm NE): 135.425 (601-544-2185)

Nearby radio navigation aids

VOR radial/distance  VOR name  Freq  Var
LBYr187/19.5EATON VORTAC110.6005E
PCUr021/36.2PICAYUNE VOR/DME114.1505E

 
NDB name  Hdg/Dist  Freq  Var  ID
BOGALUSA060/26.435300WGVB --. ...- -...

Airport Services

Runway Information

Runway 16/34

Dimensions: 1978 x 100 ft. / 603 x 30 m
Surface: turf
RUNWAY 16  RUNWAY 34
Traffic pattern: leftleft
Obstructions: 50 ft. trees, 50 ft. from runwaynone

Airport Ownership and Management from official FAA records

Ownership: Privately-owned
Owner: BASS MEMORIAL ACADEMY
6433 U.S. HWY 11
LUMBERTON, MS 39455
Phone 601-794-8561
Manager: TERRY BARKER
P. O. BOX 1516
PURVIS, MS 39475
Phone 601-310-6434

Additional Remarks

FOR CD CTC HOUSTON ARTCC AT 281-230-5622.

Instrument Procedures

There are no published instrument procedures at 33MS.

Some nearby airports with instrument procedures:

KHBG - Hattiesburg Bobby L Chain Municipal Airport (13 nm NE)
M13 - Poplarville-Pearl River County Airport (19 nm S)
KPIB - Hattiesburg-Laurel Regional Airport (22 nm N)
0R0 - Columbia-Marion County Airport (23 nm NW)
KBXA - George R Carr Memorial Air Field (29 nm SW)
 
Loc | Ops | Rwys | IFR | FBO | Links
Com | Nav | Svcs | Stats | Notes

Continental Services
AirBoss

 
Aerial photo
No photo
 
Sectional chart

 
Airport distance calculator
Flying to Freedom Strip Airport? Find the distance to fly.

From to 33MS

Sunrise and sunset
Times for 11-Jul-2020
 Local
(UTC-5)
 Zulu
(UTC)
Morning civil twilight05:3610:36
Sunrise06:0411:04
Sunset20:0301:03
Evening civil twilight20:3001:30

Current date and time
Zulu (UTC)  11-Jul-2020 22:05:18
Local (UTC-5)  11-Jul-2020 17:05:18
 
METAR
KHBG 
13nm NE 
112153Z AUTO 02004KT 10SM CLR 35/21 A2995 RMK AO2 SLP136 T03500206
KLUL 
22nm N 
112155Z AUTO 33006KT 10SM CLR 34/21 A2995 RMK A02 T03370207
KPIB 
23nm N 
112156Z AUTO 35005KT 10SM CLR 35/22 A2996 RMK AO2 SLP141 T03500222 PNO $
K0R0 
23nm NW 
112155Z AUTO VRB05G11KT 10SM CLR 35/24 A2997 RMK AO2
TAF
KHBG 
13nm NE 
111720Z 1118/1218 35006KT P6SM SKC
NOTAMs
Click for the latest NOTAMs
NOTAMs are issued by the DoD/FAA and will open in a separate window not controlled by AirNav.

 

 
 

Would you like to see your business listed on this page?

 If your business provides an interesting product or service to pilots, flight crews, aircraft, or users of the Freedom Strip Airport, you should consider listing it here.  To start the listing process, click on the button below
 
Add a business
 

Other Pages about Freedom Strip Airport

Update a link
 
Copyright © AirNav, LLC. All rights reserved. Privacy Policy  Contact